sensor_id;sensor_type;location;lat;lon;timestamp;P1;durP1;ratioP1;P2;durP2;ratioP2
35777;SDS011;21899;42.662;23.316;2023-05-17T00:00:41;20.42;;;14.23;;
35777;SDS011;21899;42.662;23.316;2023-05-17T00:03:06;23.90;;;14.85;;
35777;SDS011;21899;42.662;23.316;2023-05-17T00:05:32;25.00;;;14.40;;
35777;SDS011;21899;42.662;23.316;2023-05-17T00:07:57;24.90;;;15.38;;
35777;SDS011;21899;42.662;23.316;2023-05-17T00:10:22;21.77;;;15.30;;
35777;SDS011;21899;42.662;23.316;2023-05-17T00:12:48;25.13;;;15.02;;
35777;SDS011;21899;42.662;23.316;2023-05-17T00:15:13;23.80;;;15.70;;
35777;SDS011;21899;42.662;23.316;2023-05-17T00:17:39;27.00;;;17.45;;
35777;SDS011;21899;42.662;23.316;2023-05-17T00:20:04;27.80;;;16.52;;
35777;SDS011;21899;42.662;23.316;2023-05-17T00:22:30;28.08;;;17.15;;
35777;SDS011;21899;42.662;23.316;2023-05-17T00:24:55;22.20;;;15.63;;
35777;SDS011;21899;42.662;23.316;2023-05-17T00:27:21;24.85;;;16.25;;
35777;SDS011;21899;42.662;23.316;2023-05-17T00:29:46;25.27;;;14.95;;
35777;SDS011;21899;42.662;23.316;2023-05-17T00:32:12;27.95;;;17.02;;
35777;SDS011;21899;42.662;23.316;2023-05-17T00:34:37;31.42;;;16.42;;
35777;SDS011;21899;42.662;23.316;2023-05-17T00:37:02;26.52;;;17.42;;
35777;SDS011;21899;42.662;23.316;2023-05-17T00:39:28;30.45;;;19.73;;
35777;SDS011;21899;42.662;23.316;2023-05-17T00:41:53;32.28;;;19.75;;
35777;SDS011;21899;42.662;23.316;2023-05-17T00:44:19;28.92;;;19.83;;
35777;SDS011;21899;42.662;23.316;2023-05-17T00:46:44;29.20;;;19.52;;
35777;SDS011;21899;42.662;23.316;2023-05-17T00:49:10;34.25;;;19.63;;
35777;SDS011;21899;42.662;23.316;2023-05-17T00:51:36;31.45;;;17.65;;
35777;SDS011;21899;42.662;23.316;2023-05-17T00:54:02;25.88;;;18.33;;
35777;SDS011;21899;42.662;23.316;2023-05-17T00:56:29;26.70;;;18.10;;
35777;SDS011;21899;42.662;23.316;2023-05-17T00:58:55;35.20;;;19.52;;
35777;SDS011;21899;42.662;23.316;2023-05-17T01:01:21;27.75;;;17.90;;
35777;SDS011;21899;42.662;23.316;2023-05-17T01:03:47;28.13;;;18.60;;
35777;SDS011;21899;42.662;23.316;2023-05-17T01:06:13;31.17;;;18.60;;
35777;SDS011;21899;42.662;23.316;2023-05-17T01:08:39;25.55;;;18.13;;
35777;SDS011;21899;42.662;23.316;2023-05-17T01:13:57;27.92;;;16.23;;
35777;SDS011;21899;42.662;23.316;2023-05-17T01:16:44;30.13;;;17.17;;
35777;SDS011;21899;42.662;23.316;2023-05-17T01:24:49;26.92;;;16.05;;
35777;SDS011;21899;42.662;23.316;2023-05-17T01:27:23;24.75;;;16.67;;
35777;SDS011;21899;42.662;23.316;2023-05-17T01:29:50;28.77;;;17.70;;
35777;SDS011;21899;42.662;23.316;2023-05-17T01:32:18;36.47;;;17.27;;
35777;SDS011;21899;42.662;23.316;2023-05-17T01:34:45;28.10;;;17.13;;
35777;SDS011;21899;42.662;23.316;2023-05-17T01:37:10;26.45;;;15.38;;
35777;SDS011;21899;42.662;23.316;2023-05-17T01:39:36;36.90;;;16.52;;
35777;SDS011;21899;42.662;23.316;2023-05-17T01:44:47;20.83;;;13.38;;
35777;SDS011;21899;42.662;23.316;2023-05-17T01:50:20;22.48;;;12.50;;
35777;SDS011;21899;42.662;23.316;2023-05-17T01:58:22;18.23;;;10.52;;
35777;SDS011;21899;42.662;23.316;2023-05-17T02:00:51;18.10;;;10.68;;
35777;SDS011;21899;42.662;23.316;2023-05-17T02:03:19;24.23;;;10.77;;
35777;SDS011;21899;42.662;23.316;2023-05-17T02:05:45;22.75;;;11.05;;
35777;SDS011;21899;42.662;23.316;2023-05-17T02:08:11;21.33;;;12.55;;
35777;SDS011;21899;42.662;23.316;2023-05-17T02:10:36;23.52;;;12.30;;
35777;SDS011;21899;42.662;23.316;2023-05-17T02:13:02;22.25;;;11.50;;
35777;SDS011;21899;42.662;23.316;2023-05-17T02:15:28;19.92;;;10.10;;
35777;SDS011;21899;42.662;23.316;2023-05-17T02:17:54;22.23;;;11.35;;
35777;SDS011;21899;42.662;23.316;2023-05-17T02:20:20;20.73;;;11.20;;
35777;SDS011;21899;42.662;23.316;2023-05-17T02:22:45;18.50;;;10.45;;
35777;SDS011;21899;42.662;23.316;2023-05-17T02:25:11;20.85;;;10.50;;
35777;SDS011;21899;42.662;23.316;2023-05-17T02:27:36;21.48;;;10.10;;
35777;SDS011;21899;42.662;23.316;2023-05-17T02:30:02;19.80;;;10.80;;
35777;SDS011;21899;42.662;23.316;2023-05-17T02:32:28;24.65;;;10.90;;
35777;SDS011;21899;42.662;23.316;2023-05-17T02:34:54;22.55;;;11.48;;
35777;SDS011;21899;42.662;23.316;2023-05-17T02:37:20;20.80;;;11.82;;
35777;SDS011;21899;42.662;23.316;2023-05-17T02:39:45;20.58;;;10.35;;
35777;SDS011;21899;42.662;23.316;2023-05-17T02:42:11;19.40;;;10.77;;
35777;SDS011;21899;42.662;23.316;2023-05-17T02:44:36;26.58;;;12.65;;
35777;SDS011;21899;42.662;23.316;2023-05-17T02:47:02;28.10;;;13.13;;
35777;SDS011;21899;42.662;23.316;2023-05-17T02:49:27;23.20;;;13.70;;
35777;SDS011;21899;42.662;23.316;2023-05-17T02:51:53;20.98;;;13.93;;
35777;SDS011;21899;42.662;23.316;2023-05-17T02:54:18;23.75;;;13.05;;
35777;SDS011;21899;42.662;23.316;2023-05-17T02:56:44;27.23;;;13.75;;
35777;SDS011;21899;42.662;23.316;2023-05-17T02:59:10;23.58;;;14.57;;
35777;SDS011;21899;42.662;23.316;2023-05-17T03:01:35;23.35;;;15.15;;
35777;SDS011;21899;42.662;23.316;2023-05-17T03:04:00;26.30;;;15.40;;
35777;SDS011;21899;42.662;23.316;2023-05-17T03:06:26;38.92;;;16.75;;
35777;SDS011;21899;42.662;23.316;2023-05-17T03:08:51;26.85;;;16.90;;
35777;SDS011;21899;42.662;23.316;2023-05-17T03:11:16;24.63;;;14.88;;
35777;SDS011;21899;42.662;23.316;2023-05-17T03:13:42;23.88;;;13.95;;
35777;SDS011;21899;42.662;23.316;2023-05-17T03:16:07;21.13;;;14.07;;
35777;SDS011;21899;42.662;23.316;2023-05-17T03:18:33;29.55;;;14.70;;
35777;SDS011;21899;42.662;23.316;2023-05-17T03:20:59;29.38;;;15.18;;
35777;SDS011;21899;42.662;23.316;2023-05-17T03:23:24;28.42;;;14.27;;
35777;SDS011;21899;42.662;23.316;2023-05-17T03:25:50;26.30;;;14.98;;
35777;SDS011;21899;42.662;23.316;2023-05-17T03:28:15;23.55;;;14.55;;
35777;SDS011;21899;42.662;23.316;2023-05-17T03:30:41;27.13;;;16.13;;
35777;SDS011;21899;42.662;23.316;2023-05-17T03:33:06;29.02;;;16.58;;
35777;SDS011;21899;42.662;23.316;2023-05-17T03:35:32;26.30;;;16.08;;
35777;SDS011;21899;42.662;23.316;2023-05-17T03:37:57;24.48;;;16.27;;
35777;SDS011;21899;42.662;23.316;2023-05-17T03:40:23;29.60;;;16.15;;
35777;SDS011;21899;42.662;23.316;2023-05-17T03:42:48;36.28;;;16.35;;
35777;SDS011;21899;42.662;23.316;2023-05-17T03:45:14;34.55;;;16.33;;
35777;SDS011;21899;42.662;23.316;2023-05-17T03:47:40;29.48;;;16.73;;
35777;SDS011;21899;42.662;23.316;2023-05-17T03:50:07;27.52;;;16.80;;
35777;SDS011;21899;42.662;23.316;2023-05-17T03:52:33;32.67;;;18.95;;
35777;SDS011;21899;42.662;23.316;2023-05-17T03:54:58;39.08;;;18.85;;
35777;SDS011;21899;42.662;23.316;2023-05-17T03:57:23;35.72;;;18.92;;
35777;SDS011;21899;42.662;23.316;2023-05-17T03:59:49;37.42;;;17.73;;
35777;SDS011;21899;42.662;23.316;2023-05-17T04:02:14;39.00;;;17.98;;
35777;SDS011;21899;42.662;23.316;2023-05-17T04:04:40;34.80;;;17.77;;
35777;SDS011;21899;42.662;23.316;2023-05-17T04:07:06;34.25;;;16.77;;
35777;SDS011;21899;42.662;23.316;2023-05-17T04:09:32;38.47;;;17.00;;
35777;SDS011;21899;42.662;23.316;2023-05-17T04:11:59;30.00;;;17.58;;
35777;SDS011;21899;42.662;23.316;2023-05-17T04:14:24;33.40;;;17.77;;
35777;SDS011;21899;42.662;23.316;2023-05-17T04:16:50;29.20;;;17.50;;
35777;SDS011;21899;42.662;23.316;2023-05-17T04:19:15;29.85;;;17.02;;
35777;SDS011;21899;42.662;23.316;2023-05-17T04:21:41;33.22;;;16.05;;
35777;SDS011;21899;42.662;23.316;2023-05-17T04:24:06;28.10;;;16.75;;
35777;SDS011;21899;42.662;23.316;2023-05-17T04:26:32;32.92;;;16.35;;
35777;SDS011;21899;42.662;23.316;2023-05-17T04:28:58;29.45;;;17.05;;
35777;SDS011;21899;42.662;23.316;2023-05-17T04:31:23;33.47;;;17.42;;
35777;SDS011;21899;42.662;23.316;2023-05-17T04:33:49;30.10;;;16.88;;
35777;SDS011;21899;42.662;23.316;2023-05-17T04:36:14;26.35;;;17.23;;
35777;SDS011;21899;42.662;23.316;2023-05-17T04:38:41;28.33;;;17.15;;
35777;SDS011;21899;42.662;23.316;2023-05-17T04:41:07;25.75;;;15.50;;
35777;SDS011;21899;42.662;23.316;2023-05-17T04:43:33;29.63;;;17.38;;
35777;SDS011;21899;42.662;23.316;2023-05-17T04:45:59;27.42;;;16.42;;
35777;SDS011;21899;42.662;23.316;2023-05-17T04:48:25;29.08;;;14.77;;
35777;SDS011;21899;42.662;23.316;2023-05-17T04:50:54;27.20;;;15.40;;
35777;SDS011;21899;42.662;23.316;2023-05-17T04:53:19;28.80;;;16.00;;
35777;SDS011;21899;42.662;23.316;2023-05-17T04:55:45;29.15;;;15.60;;
35777;SDS011;21899;42.662;23.316;2023-05-17T04:58:12;26.60;;;16.77;;
35777;SDS011;21899;42.662;23.316;2023-05-17T05:00:37;27.75;;;15.63;;
35777;SDS011;21899;42.662;23.316;2023-05-17T05:03:03;29.38;;;16.55;;
35777;SDS011;21899;42.662;23.316;2023-05-17T05:05:29;31.50;;;17.27;;
35777;SDS011;21899;42.662;23.316;2023-05-17T05:07:55;31.52;;;16.33;;
35777;SDS011;21899;42.662;23.316;2023-05-17T05:10:21;31.17;;;15.73;;
35777;SDS011;21899;42.662;23.316;2023-05-17T05:12:47;23.55;;;16.23;;
35777;SDS011;21899;42.662;23.316;2023-05-17T05:15:12;23.40;;;14.98;;
35777;SDS011;21899;42.662;23.316;2023-05-17T05:17:38;27.23;;;14.95;;
35777;SDS011;21899;42.662;23.316;2023-05-17T05:20:03;28.98;;;15.30;;
35777;SDS011;21899;42.662;23.316;2023-05-17T05:22:29;23.55;;;14.50;;
35777;SDS011;21899;42.662;23.316;2023-05-17T05:24:54;23.77;;;14.20;;
35777;SDS011;21899;42.662;23.316;2023-05-17T05:27:20;18.60;;;13.38;;
35777;SDS011;21899;42.662;23.316;2023-05-17T05:29:46;25.52;;;13.00;;
35777;SDS011;21899;42.662;23.316;2023-05-17T05:32:11;21.02;;;13.00;;
35777;SDS011;21899;42.662;23.316;2023-05-17T05:34:37;26.52;;;14.82;;
35777;SDS011;21899;42.662;23.316;2023-05-17T05:37:02;24.10;;;13.70;;
35777;SDS011;21899;42.662;23.316;2023-05-17T05:39:28;22.30;;;14.07;;
35777;SDS011;21899;42.662;23.316;2023-05-17T05:41:53;24.23;;;12.88;;
35777;SDS011;21899;42.662;23.316;2023-05-17T05:44:19;24.65;;;12.90;;
35777;SDS011;21899;42.662;23.316;2023-05-17T05:46:44;18.70;;;12.00;;
35777;SDS011;21899;42.662;23.316;2023-05-17T05:49:10;23.10;;;12.95;;
35777;SDS011;21899;42.662;23.316;2023-05-17T05:51:35;21.48;;;13.23;;
35777;SDS011;21899;42.662;23.316;2023-05-17T05:54:00;19.73;;;13.00;;
35777;SDS011;21899;42.662;23.316;2023-05-17T05:56:26;21.40;;;12.05;;
35777;SDS011;21899;42.662;23.316;2023-05-17T05:58:53;22.88;;;12.32;;
35777;SDS011;21899;42.662;23.316;2023-05-17T06:01:19;19.90;;;11.80;;
35777;SDS011;21899;42.662;23.316;2023-05-17T06:03:45;19.95;;;10.77;;
35777;SDS011;21899;42.662;23.316;2023-05-17T06:06:10;19.42;;;10.63;;
35777;SDS011;21899;42.662;23.316;2023-05-17T06:08:36;21.80;;;10.23;;
35777;SDS011;21899;42.662;23.316;2023-05-17T06:11:01;22.50;;;10.93;;
35777;SDS011;21899;42.662;23.316;2023-05-17T06:13:27;21.48;;;11.02;;
35777;SDS011;21899;42.662;23.316;2023-05-17T06:15:52;20.92;;;10.45;;
35777;SDS011;21899;42.662;23.316;2023-05-17T06:18:18;18.35;;;11.32;;
35777;SDS011;21899;42.662;23.316;2023-05-17T06:20:43;20.23;;;11.65;;
35777;SDS011;21899;42.662;23.316;2023-05-17T06:23:10;22.08;;;11.70;;
35777;SDS011;21899;42.662;23.316;2023-05-17T06:25:35;18.77;;;10.13;;
35777;SDS011;21899;42.662;23.316;2023-05-17T06:28:01;23.42;;;11.15;;
35777;SDS011;21899;42.662;23.316;2023-05-17T06:30:28;21.70;;;11.80;;
35777;SDS011;21899;42.662;23.316;2023-05-17T06:32:54;18.98;;;9.90;;
35777;SDS011;21899;42.662;23.316;2023-05-17T06:35:19;15.60;;;11.00;;
35777;SDS011;21899;42.662;23.316;2023-05-17T06:37:44;23.30;;;12.45;;
35777;SDS011;21899;42.662;23.316;2023-05-17T06:40:10;17.45;;;10.32;;
35777;SDS011;21899;42.662;23.316;2023-05-17T06:42:36;17.02;;;9.68;;
35777;SDS011;21899;42.662;23.316;2023-05-17T06:45:01;18.48;;;9.98;;
35777;SDS011;21899;42.662;23.316;2023-05-17T06:47:27;19.67;;;10.07;;
35777;SDS011;21899;42.662;23.316;2023-05-17T06:49:52;22.30;;;10.68;;
35777;SDS011;21899;42.662;23.316;2023-05-17T06:52:18;14.65;;;8.85;;
35777;SDS011;21899;42.662;23.316;2023-05-17T06:54:43;16.27;;;9.88;;
35777;SDS011;21899;42.662;23.316;2023-05-17T06:57:09;18.80;;;10.23;;
35777;SDS011;21899;42.662;23.316;2023-05-17T06:59:37;15.57;;;10.38;;
35777;SDS011;21899;42.662;23.316;2023-05-17T07:02:02;20.67;;;11.60;;
35777;SDS011;21899;42.662;23.316;2023-05-17T07:04:28;18.48;;;10.77;;
35777;SDS011;21899;42.662;23.316;2023-05-17T07:06:54;17.63;;;9.85;;
35777;SDS011;21899;42.662;23.316;2023-05-17T07:09:20;24.17;;;11.63;;
35777;SDS011;21899;42.662;23.316;2023-05-17T07:11:46;21.55;;;9.75;;
35777;SDS011;21899;42.662;23.316;2023-05-17T07:14:11;23.60;;;11.73;;
35777;SDS011;21899;42.662;23.316;2023-05-17T07:16:37;16.70;;;10.50;;
35777;SDS011;21899;42.662;23.316;2023-05-17T07:19:02;18.05;;;9.98;;
35777;SDS011;21899;42.662;23.316;2023-05-17T07:21:28;24.23;;;12.77;;
35777;SDS011;21899;42.662;23.316;2023-05-17T07:23:53;21.77;;;10.90;;
35777;SDS011;21899;42.662;23.316;2023-05-17T07:26:19;18.42;;;11.02;;
35777;SDS011;21899;42.662;23.316;2023-05-17T07:28:45;18.00;;;10.75;;
35777;SDS011;21899;42.662;23.316;2023-05-17T07:31:11;17.58;;;9.90;;
35777;SDS011;21899;42.662;23.316;2023-05-17T07:33:37;17.40;;;10.30;;
35777;SDS011;21899;42.662;23.316;2023-05-17T07:36:02;16.65;;;10.02;;
35777;SDS011;21899;42.662;23.316;2023-05-17T07:38:28;18.38;;;10.20;;
35777;SDS011;21899;42.662;23.316;2023-05-17T07:40:54;17.73;;;10.18;;
35777;SDS011;21899;42.662;23.316;2023-05-17T07:43:19;21.08;;;10.85;;
35777;SDS011;21899;42.662;23.316;2023-05-17T07:45:45;20.35;;;10.90;;
35777;SDS011;21899;42.662;23.316;2023-05-17T07:48:11;19.13;;;11.05;;
35777;SDS011;21899;42.662;23.316;2023-05-17T07:50:36;22.65;;;11.05;;
35777;SDS011;21899;42.662;23.316;2023-05-17T07:53:02;25.30;;;11.25;;
35777;SDS011;21899;42.662;23.316;2023-05-17T07:55:27;17.73;;;9.50;;
35777;SDS011;21899;42.662;23.316;2023-05-17T07:57:52;17.73;;;9.52;;
35777;SDS011;21899;42.662;23.316;2023-05-17T08:00:19;24.25;;;10.98;;
35777;SDS011;21899;42.662;23.316;2023-05-17T08:02:44;15.48;;;10.63;;
35777;SDS011;21899;42.662;23.316;2023-05-17T08:05:10;26.17;;;11.02;;
35777;SDS011;21899;42.662;23.316;2023-05-17T08:07:36;23.08;;;11.05;;
35777;SDS011;21899;42.662;23.316;2023-05-17T08:10:01;18.45;;;9.90;;
35777;SDS011;21899;42.662;23.316;2023-05-17T08:12:27;21.08;;;10.85;;
35777;SDS011;21899;42.662;23.316;2023-05-17T08:14:53;22.00;;;10.38;;
35777;SDS011;21899;42.662;23.316;2023-05-17T08:17:18;18.98;;;9.48;;
35777;SDS011;21899;42.662;23.316;2023-05-17T08:19:43;19.98;;;10.45;;
35777;SDS011;21899;42.662;23.316;2023-05-17T08:22:09;20.60;;;10.63;;
35777;SDS011;21899;42.662;23.316;2023-05-17T08:24:34;20.15;;;9.40;;
35777;SDS011;21899;42.662;23.316;2023-05-17T08:27:00;20.65;;;9.93;;
35777;SDS011;21899;42.662;23.316;2023-05-17T08:29:26;19.85;;;10.07;;
35777;SDS011;21899;42.662;23.316;2023-05-17T08:31:52;16.92;;;8.80;;
35777;SDS011;21899;42.662;23.316;2023-05-17T08:34:18;15.00;;;9.25;;
35777;SDS011;21899;42.662;23.316;2023-05-17T08:36:44;13.93;;;9.10;;
35777;SDS011;21899;42.662;23.316;2023-05-17T08:39:09;17.30;;;9.68;;
35777;SDS011;21899;42.662;23.316;2023-05-17T08:41:36;20.80;;;9.90;;
35777;SDS011;21899;42.662;23.316;2023-05-17T08:44:02;17.25;;;9.68;;
35777;SDS011;21899;42.662;23.316;2023-05-17T08:46:29;21.40;;;9.20;;
35777;SDS011;21899;42.662;23.316;2023-05-17T08:49:00;17.27;;;9.23;;
35777;SDS011;21899;42.662;23.316;2023-05-17T08:51:27;18.33;;;9.73;;
35777;SDS011;21899;42.662;23.316;2023-05-17T08:53:53;17.88;;;9.13;;
35777;SDS011;21899;42.662;23.316;2023-05-17T08:56:19;22.10;;;8.73;;
35777;SDS011;21899;42.662;23.316;2023-05-17T08:58:48;16.38;;;8.20;;
35777;SDS011;21899;42.662;23.316;2023-05-17T09:01:17;15.00;;;9.70;;
35777;SDS011;21899;42.662;23.316;2023-05-17T09:03:45;20.83;;;8.63;;
35777;SDS011;21899;42.662;23.316;2023-05-17T09:06:15;15.45;;;8.57;;
35777;SDS011;21899;42.662;23.316;2023-05-17T09:08:42;21.17;;;9.80;;
35777;SDS011;21899;42.662;23.316;2023-05-17T09:11:08;20.15;;;10.52;;
35777;SDS011;21899;42.662;23.316;2023-05-17T09:13:34;21.42;;;10.35;;
35777;SDS011;21899;42.662;23.316;2023-05-17T09:16:01;23.13;;;11.45;;
35777;SDS011;21899;42.662;23.316;2023-05-17T09:18:30;17.50;;;9.52;;
35777;SDS011;21899;42.662;23.316;2023-05-17T09:21:04;19.85;;;10.55;;
35777;SDS011;21899;42.662;23.316;2023-05-17T09:23:30;20.20;;;9.60;;
35777;SDS011;21899;42.662;23.316;2023-05-17T09:26:05;21.88;;;10.98;;
35777;SDS011;21899;42.662;23.316;2023-05-17T09:28:38;21.77;;;10.23;;
35777;SDS011;21899;42.662;23.316;2023-05-17T09:31:08;16.83;;;8.30;;
35777;SDS011;21899;42.662;23.316;2023-05-17T09:33:43;19.85;;;10.57;;
35777;SDS011;21899;42.662;23.316;2023-05-17T09:36:16;24.77;;;10.18;;
35777;SDS011;21899;42.662;23.316;2023-05-17T09:38:50;20.98;;;9.85;;
35777;SDS011;21899;42.662;23.316;2023-05-17T09:41:20;20.55;;;9.68;;
35777;SDS011;21899;42.662;23.316;2023-05-17T09:43:47;18.23;;;10.60;;
35777;SDS011;21899;42.662;23.316;2023-05-17T09:46:13;19.60;;;10.48;;
35777;SDS011;21899;42.662;23.316;2023-05-17T09:48:39;16.55;;;10.30;;
35777;SDS011;21899;42.662;23.316;2023-05-17T09:51:07;22.50;;;10.60;;
35777;SDS011;21899;42.662;23.316;2023-05-17T09:53:33;16.77;;;9.63;;
35777;SDS011;21899;42.662;23.316;2023-05-17T09:56:06;19.75;;;10.52;;
35777;SDS011;21899;42.662;23.316;2023-05-17T09:58:32;20.83;;;9.07;;
35777;SDS011;21899;42.662;23.316;2023-05-17T10:00:59;23.75;;;9.63;;
35777;SDS011;21899;42.662;23.316;2023-05-17T10:03:29;17.30;;;8.88;;
35777;SDS011;21899;42.662;23.316;2023-05-17T10:06:02;18.55;;;8.98;;
35777;SDS011;21899;42.662;23.316;2023-05-17T10:08:31;16.25;;;8.30;;
35777;SDS011;21899;42.662;23.316;2023-05-17T10:10:58;18.80;;;8.60;;
35777;SDS011;21899;42.662;23.316;2023-05-17T10:13:29;14.68;;;7.88;;
35777;SDS011;21899;42.662;23.316;2023-05-17T10:15:59;22.05;;;8.25;;
35777;SDS011;21899;42.662;23.316;2023-05-17T10:18:25;17.20;;;8.65;;
35777;SDS011;21899;42.662;23.316;2023-05-17T10:20:52;16.20;;;7.55;;
35777;SDS011;21899;42.662;23.316;2023-05-17T10:23:18;21.52;;;9.05;;
35777;SDS011;21899;42.662;23.316;2023-05-17T10:25:45;18.60;;;8.95;;
35777;SDS011;21899;42.662;23.316;2023-05-17T10:28:11;17.75;;;8.35;;
35777;SDS011;21899;42.662;23.316;2023-05-17T10:30:41;15.65;;;7.78;;
35777;SDS011;21899;42.662;23.316;2023-05-17T10:33:07;19.95;;;8.95;;
35777;SDS011;21899;42.662;23.316;2023-05-17T10:35:34;19.80;;;7.70;;
35777;SDS011;21899;42.662;23.316;2023-05-17T10:38:00;15.85;;;8.02;;
35777;SDS011;21899;42.662;23.316;2023-05-17T10:40:25;16.73;;;8.52;;
35777;SDS011;21899;42.662;23.316;2023-05-17T10:42:54;19.73;;;8.38;;
35777;SDS011;21899;42.662;23.316;2023-05-17T10:45:22;18.60;;;8.18;;
35777;SDS011;21899;42.662;23.316;2023-05-17T10:47:53;16.55;;;8.10;;
35777;SDS011;21899;42.662;23.316;2023-05-17T10:50:22;14.88;;;7.57;;
35777;SDS011;21899;42.662;23.316;2023-05-17T10:52:49;18.52;;;8.25;;
35777;SDS011;21899;42.662;23.316;2023-05-17T10:55:22;19.60;;;9.05;;
35777;SDS011;21899;42.662;23.316;2023-05-17T11:05:40;20.10;;;8.93;;
35777;SDS011;21899;42.662;23.316;2023-05-17T11:08:15;18.33;;;8.80;;
35777;SDS011;21899;42.662;23.316;2023-05-17T11:14:08;16.33;;;7.38;;
35777;SDS011;21899;42.662;23.316;2023-05-17T11:16:35;13.13;;;7.18;;
35777;SDS011;21899;42.662;23.316;2023-05-17T11:19:08;16.05;;;8.05;;
35777;SDS011;21899;42.662;23.316;2023-05-17T11:21:35;17.55;;;7.93;;
35777;SDS011;21899;42.662;23.316;2023-05-17T11:24:09;17.40;;;8.38;;
35777;SDS011;21899;42.662;23.316;2023-05-17T11:26:40;16.52;;;9.18;;
35777;SDS011;21899;42.662;23.316;2023-05-17T11:29:09;19.92;;;9.05;;
35777;SDS011;21899;42.662;23.316;2023-05-17T11:31:36;21.95;;;9.05;;
35777;SDS011;21899;42.662;23.316;2023-05-17T11:34:08;19.75;;;10.25;;
35777;SDS011;21899;42.662;23.316;2023-05-17T11:36:48;23.90;;;11.02;;
35777;SDS011;21899;42.662;23.316;2023-05-17T11:39:21;25.58;;;12.07;;
35777;SDS011;21899;42.662;23.316;2023-05-17T11:41:52;18.23;;;10.55;;
35777;SDS011;21899;42.662;23.316;2023-05-17T11:44:31;23.00;;;10.27;;
35777;SDS011;21899;42.662;23.316;2023-05-17T11:47:01;23.02;;;10.88;;
35777;SDS011;21899;42.662;23.316;2023-05-17T11:49:31;24.77;;;10.63;;
35777;SDS011;21899;42.662;23.316;2023-05-17T11:51:58;19.50;;;9.10;;
35777;SDS011;21899;42.662;23.316;2023-05-17T11:54:24;17.52;;;9.73;;
35777;SDS011;21899;42.662;23.316;2023-05-17T11:56:52;16.63;;;8.57;;
35777;SDS011;21899;42.662;23.316;2023-05-17T11:59:21;16.00;;;9.13;;
35777;SDS011;21899;42.662;23.316;2023-05-17T12:01:47;17.20;;;9.32;;
35777;SDS011;21899;42.662;23.316;2023-05-17T12:04:21;18.95;;;10.02;;
35777;SDS011;21899;42.662;23.316;2023-05-17T12:06:51;19.90;;;9.23;;
35777;SDS011;21899;42.662;23.316;2023-05-17T12:09:17;19.33;;;9.13;;
35777;SDS011;21899;42.662;23.316;2023-05-17T12:11:43;19.05;;;9.45;;
35777;SDS011;21899;42.662;23.316;2023-05-17T12:14:08;18.70;;;8.38;;
35777;SDS011;21899;42.662;23.316;2023-05-17T12:16:37;21.60;;;9.32;;
35777;SDS011;21899;42.662;23.316;2023-05-17T12:19:15;17.45;;;8.38;;
35777;SDS011;21899;42.662;23.316;2023-05-17T12:21:42;19.42;;;8.48;;
35777;SDS011;21899;42.662;23.316;2023-05-17T12:24:08;17.55;;;8.45;;
35777;SDS011;21899;42.662;23.316;2023-05-17T12:26:33;14.75;;;8.15;;
35777;SDS011;21899;42.662;23.316;2023-05-17T12:28:59;22.67;;;9.05;;
35777;SDS011;21899;42.662;23.316;2023-05-17T12:31:27;18.92;;;8.23;;
35777;SDS011;21899;42.662;23.316;2023-05-17T12:33:55;18.30;;;8.88;;
35777;SDS011;21899;42.662;23.316;2023-05-17T12:36:23;20.55;;;7.82;;
35777;SDS011;21899;42.662;23.316;2023-05-17T12:38:49;19.13;;;8.30;;
35777;SDS011;21899;42.662;23.316;2023-05-17T12:41:17;18.67;;;9.10;;
35777;SDS011;21899;42.662;23.316;2023-05-17T12:43:43;17.52;;;8.45;;
35777;SDS011;21899;42.662;23.316;2023-05-17T12:48:42;20.35;;;9.75;;
35777;SDS011;21899;42.662;23.316;2023-05-17T12:53:35;13.57;;;9.60;;
35777;SDS011;21899;42.662;23.316;2023-05-17T12:56:02;19.95;;;9.60;;
35777;SDS011;21899;42.662;23.316;2023-05-17T12:58:28;17.60;;;9.35;;
35777;SDS011;21899;42.662;23.316;2023-05-17T13:00:57;17.95;;;10.45;;
35777;SDS011;21899;42.662;23.316;2023-05-17T13:03:24;14.93;;;10.35;;
35777;SDS011;21899;42.662;23.316;2023-05-17T13:06:06;18.90;;;10.48;;
35777;SDS011;21899;42.662;23.316;2023-05-17T13:08:34;17.15;;;8.68;;
35777;SDS011;21899;42.662;23.316;2023-05-17T13:11:06;18.42;;;9.02;;
35777;SDS011;21899;42.662;23.316;2023-05-17T13:13:33;18.35;;;9.25;;
35777;SDS011;21899;42.662;23.316;2023-05-17T13:15:58;18.23;;;8.65;;
35777;SDS011;21899;42.662;23.316;2023-05-17T13:18:24;15.88;;;8.95;;
35777;SDS011;21899;42.662;23.316;2023-05-17T13:20:49;21.15;;;8.27;;
35777;SDS011;21899;42.662;23.316;2023-05-17T13:23:15;18.23;;;7.57;;
35777;SDS011;21899;42.662;23.316;2023-05-17T13:25:41;13.30;;;7.47;;
35777;SDS011;21899;42.662;23.316;2023-05-17T13:28:06;16.35;;;8.20;;
35777;SDS011;21899;42.662;23.316;2023-05-17T13:30:32;14.60;;;8.27;;
35777;SDS011;21899;42.662;23.316;2023-05-17T13:32:57;15.13;;;8.25;;
35777;SDS011;21899;42.662;23.316;2023-05-17T13:35:23;18.45;;;9.48;;
35777;SDS011;21899;42.662;23.316;2023-05-17T13:37:48;17.25;;;8.52;;
35777;SDS011;21899;42.662;23.316;2023-05-17T13:40:14;15.32;;;8.48;;
35777;SDS011;21899;42.662;23.316;2023-05-17T13:42:39;21.27;;;9.35;;
35777;SDS011;21899;42.662;23.316;2023-05-17T13:45:05;21.77;;;8.63;;
35777;SDS011;21899;42.662;23.316;2023-05-17T13:47:33;15.02;;;8.45;;
35777;SDS011;21899;42.662;23.316;2023-05-17T13:50:00;13.82;;;7.07;;
35777;SDS011;21899;42.662;23.316;2023-05-17T13:52:25;12.48;;;7.55;;
35777;SDS011;21899;42.662;23.316;2023-05-17T13:54:51;19.92;;;7.18;;
35777;SDS011;21899;42.662;23.316;2023-05-17T13:57:16;12.93;;;6.97;;
35777;SDS011;21899;42.662;23.316;2023-05-17T13:59:42;15.98;;;7.10;;
35777;SDS011;21899;42.662;23.316;2023-05-17T14:02:08;11.32;;;6.45;;
35777;SDS011;21899;42.662;23.316;2023-05-17T14:04:34;14.77;;;6.45;;
35777;SDS011;21899;42.662;23.316;2023-05-17T14:07:00;16.48;;;7.22;;
35777;SDS011;21899;42.662;23.316;2023-05-17T14:09:27;14.35;;;7.00;;
35777;SDS011;21899;42.662;23.316;2023-05-17T14:11:56;13.35;;;7.30;;
35777;SDS011;21899;42.662;23.316;2023-05-17T14:14:22;14.93;;;5.85;;
35777;SDS011;21899;42.662;23.316;2023-05-17T14:16:50;13.88;;;5.85;;
35777;SDS011;21899;42.662;23.316;2023-05-17T14:19:15;13.13;;;6.28;;
35777;SDS011;21899;42.662;23.316;2023-05-17T14:21:41;15.55;;;6.85;;
35777;SDS011;21899;42.662;23.316;2023-05-17T14:24:06;14.07;;;7.03;;
35777;SDS011;21899;42.662;23.316;2023-05-17T14:26:31;18.67;;;7.43;;
35777;SDS011;21899;42.662;23.316;2023-05-17T14:28:57;20.20;;;6.85;;
35777;SDS011;21899;42.662;23.316;2023-05-17T14:31:22;12.20;;;6.57;;
35777;SDS011;21899;42.662;23.316;2023-05-17T14:33:48;15.23;;;6.28;;
35777;SDS011;21899;42.662;23.316;2023-05-17T14:36:13;14.65;;;6.07;;
35777;SDS011;21899;42.662;23.316;2023-05-17T14:38:39;22.25;;;6.38;;
35777;SDS011;21899;42.662;23.316;2023-05-17T14:41:05;12.40;;;5.43;;
35777;SDS011;21899;42.662;23.316;2023-05-17T14:43:31;11.63;;;5.78;;
35777;SDS011;21899;42.662;23.316;2023-05-17T14:45:57;11.60;;;5.32;;